Time;durP1;ratioP1;P1;durP2;ratioP2;P2;SDS_P1;SDS_P2;PMS_P1;PMS_P2;Temp;Humidity;BMP_temperature;BMP_pressure;BME280_temperature;BME280_humidity;BME280_pressure;Samples;Min_cycle;Max_cycle;Signal;HPM_P1;HPM_P2
2021/08/25 00:01:31;;;;;;;;;8.75;7.00;;;;;;;;4997966;28;46485;-80
2021/08/25 00:03:56;;;;;;;;;10.25;7.00;;;;;;;;4984231;28;45243;-81
2021/08/25 00:06:21;;;;;;;;;9.67;8.00;;;;;;;;5001552;28;45616;-80
2021/08/25 00:08:47;;;;;;;;;10.00;6.00;;;;;;;;5001560;28;46205;-80
2021/08/25 00:11:12;;;;;;;;;10.50;7.50;;;;;;;;5001092;28;45257;-80
2021/08/25 00:13:37;;;;;;;;;10.25;9.50;;;;;;;;5003844;28;45230;-80
2021/08/25 00:16:02;;;;;;;;;9.00;6.67;;;;;;;;5001393;28;45239;-80
2021/08/25 00:18:28;;;;;;;;;7.25;6.75;;;;;;;;4983481;28;46768;-81
2021/08/25 00:20:53;;;;;;;;;8.25;8.25;;;;;;;;5004456;28;45372;-81
2021/08/25 00:23:18;;;;;;;;;8.00;6.00;;;;;;;;5021475;28;45247;-81
2021/08/25 00:25:44;;;;;;;;;6.00;6.00;;;;;;;;5003103;28;45722;-81
2021/08/25 00:28:09;;;;;;;;;7.00;7.00;;;;;;;;5021188;28;45234;-81
2021/08/25 00:30:34;;;;;;;;;9.50;6.50;;;;;;;;5020955;28;45528;-81
2021/08/25 00:33:00;;;;;;;;;7.75;7.00;;;;;;;;5021063;28;45460;-80
2021/08/25 00:35:25;;;;;;;;;10.25;8.50;;;;;;;;5021059;28;45547;-81
2021/08/25 00:37:52;;;;;;;;;13.75;8.75;;;;;;;;5021172;28;46326;-81
2021/08/25 00:40:17;;;;;;;;;6.75;6.50;;;;;;;;5020657;28;45356;-81
2021/08/25 00:42:42;;;;;;;;;9.75;7.00;;;;;;;;5000073;28;45448;-81
2021/08/25 00:45:08;;;;;;;;;7.33;7.33;;;;;;;;5001223;28;45643;-81
2021/08/25 00:47:40;;;;;;;;;14.50;7.25;;;;;;;;5000625;28;45495;-81
2021/08/25 00:50:06;;;;;;;;;7.00;6.50;;;;;;;;5000909;28;45361;-81
2021/08/25 00:52:33;;;;;;;;;9.00;6.75;;;;;;;;5000995;28;45384;-81
2021/08/25 00:54:58;;;;;;;;;7.25;6.00;;;;;;;;4972586;28;45557;-81
2021/08/25 00:57:24;;;;;;;;;7.25;6.25;;;;;;;;5002773;28;45852;-81
2021/08/25 00:59:49;;;;;;;;;7.75;6.50;;;;;;;;5004439;28;45463;-81
2021/08/25 01:02:23;;;;;;;;;7.00;6.75;;;;;;;;5003699;28;45159;-81
2021/08/25 01:04:51;;;;;;;;;5.75;5.50;;;;;;;;5000816;28;45226;-81
2021/08/25 01:07:17;;;;;;;;;7.00;6.00;;;;;;;;5007240;28;45576;-81
2021/08/25 01:09:43;;;;;;;;;13.25;7.00;;;;;;;;5020591;28;45171;-81
2021/08/25 01:12:09;;;;;;;;;8.50;8.50;;;;;;;;5002467;28;45803;-81
2021/08/25 01:14:34;;;;;;;;;8.00;7.00;;;;;;;;5006964;28;45571;-81
2021/08/25 01:17:00;;;;;;;;;12.50;8.00;;;;;;;;5000530;28;45396;-81
2021/08/25 01:19:26;;;;;;;;;10.75;7.50;;;;;;;;5000338;28;45337;-81
2021/08/25 01:21:51;;;;;;;;;10.50;9.00;;;;;;;;5000717;28;45332;-81
2021/08/25 01:24:17;;;;;;;;;8.50;6.75;;;;;;;;5000131;28;45468;-81
2021/08/25 01:26:43;;;;;;;;;8.25;5.50;;;;;;;;5000392;28;45447;-81
2021/08/25 01:29:21;;;;;;;;;7.00;6.50;;;;;;;;5000305;28;45391;-80
2021/08/25 01:31:47;;;;;;;;;9.00;6.75;;;;;;;;4999486;28;45265;-81
2021/08/25 01:34:12;;;;;;;;;8.50;6.75;;;;;;;;5000036;28;45155;-81
2021/08/25 01:36:37;;;;;;;;;11.67;7.00;;;;;;;;5000476;28;45540;-81
2021/08/25 01:39:03;;;;;;;;;8.75;7.00;;;;;;;;4999933;28;45240;-81
2021/08/25 01:41:28;;;;;;;;;9.50;8.50;;;;;;;;5000366;28;45586;-81
2021/08/25 01:43:54;;;;;;;;;7.67;7.67;;;;;;;;5002628;28;45551;-80
2021/08/25 01:46:25;;;;;;;;;6.00;6.00;;;;;;;;5000042;28;45439;-81
2021/08/25 01:48:51;;;;;;;;;11.25;7.75;;;;;;;;4989456;28;46272;-81
2021/08/25 01:51:16;;;;;;;;;8.00;6.75;;;;;;;;5019854;28;45320;-81
2021/08/25 01:53:42;;;;;;;;;8.00;8.00;;;;;;;;5019886;28;45210;-81
2021/08/25 01:56:07;;;;;;;;;6.33;5.67;;;;;;;;5001192;28;46830;-81
2021/08/25 01:58:32;;;;;;;;;10.33;6.00;;;;;;;;5001777;28;45304;-81
2021/08/25 02:00:57;;;;;;;;;8.00;6.00;;;;;;;;5006772;28;45372;-81
2021/08/25 02:03:23;;;;;;;;;12.50;8.50;;;;;;;;4999840;28;45310;-81
2021/08/25 02:05:48;;;;;;;;;8.00;6.33;;;;;;;;4978261;28;46238;-81
2021/08/25 02:08:13;;;;;;;;;13.00;7.33;;;;;;;;4980282;28;45346;-81
2021/08/25 02:10:39;;;;;;;;;8.00;7.25;;;;;;;;4980005;28;45236;-81
2021/08/25 02:13:04;;;;;;;;;9.25;7.25;;;;;;;;4987348;28;45537;-80
2021/08/25 02:15:30;;;;;;;;;9.33;6.00;;;;;;;;4999661;28;45404;-81
2021/08/25 02:17:55;;;;;;;;;7.00;7.00;;;;;;;;4982131;28;46303;-81
2021/08/25 02:20:20;;;;;;;;;9.00;8.00;;;;;;;;4999726;28;45593;-81
2021/08/25 02:22:45;;;;;;;;;8.33;6.67;;;;;;;;4999846;28;45495;-81
2021/08/25 02:25:10;;;;;;;;;10.67;8.33;;;;;;;;4997726;28;46510;-81
2021/08/25 02:27:36;;;;;;;;;9.25;7.00;;;;;;;;4999331;28;45352;-81
2021/08/25 02:30:01;;;;;;;;;8.00;7.00;;;;;;;;4999549;28;45591;-81
2021/08/25 02:32:26;;;;;;;;;13.67;7.00;;;;;;;;4999506;28;45447;-81
2021/08/25 02:34:52;;;;;;;;;8.00;7.00;;;;;;;;4999445;28;45515;-81
2021/08/25 02:37:17;;;;;;;;;8.50;6.75;;;;;;;;4999439;28;45246;-81
2021/08/25 02:39:43;;;;;;;;;7.50;7.50;;;;;;;;4981937;28;45434;-81
2021/08/25 02:42:08;;;;;;;;;13.67;7.00;;;;;;;;4999397;28;45424;-81
2021/08/25 02:44:33;;;;;;;;;9.25;7.75;;;;;;;;5002052;28;45354;-81
2021/08/25 02:46:58;;;;;;;;;11.00;8.67;;;;;;;;5000870;28;45467;-81
2021/08/25 02:49:23;;;;;;;;;10.00;9.00;;;;;;;;5002838;28;45591;-81
2021/08/25 02:51:49;;;;;;;;;9.67;8.00;;;;;;;;5002426;28;45341;-81
2021/08/25 02:54:14;;;;;;;;;8.00;8.00;;;;;;;;5002852;28;45410;-81
2021/08/25 02:56:39;;;;;;;;;9.67;8.00;;;;;;;;5002243;28;45376;-81
2021/08/25 02:59:04;;;;;;;;;8.67;7.00;;;;;;;;4989244;28;45291;-81
2021/08/25 03:01:29;;;;;;;;;9.00;9.00;;;;;;;;4989490;28;45186;-81
2021/08/25 03:03:55;;;;;;;;;10.00;9.00;;;;;;;;4982713;28;45225;-81
2021/08/25 03:06:20;;;;;;;;;13.33;10.33;;;;;;;;4995578;28;45648;-81
2021/08/25 03:08:45;;;;;;;;;10.00;8.00;;;;;;;;5022358;28;45272;-81
2021/08/25 03:11:10;;;;;;;;;9.00;7.00;;;;;;;;5021981;28;45341;-81
2021/08/25 03:13:36;;;;;;;;;11.00;9.25;;;;;;;;4995377;28;47101;-81
2021/08/25 03:16:01;;;;;;;;;10.00;7.67;;;;;;;;5002408;28;45216;-81
2021/08/25 03:18:26;;;;;;;;;8.00;8.00;;;;;;;;5002466;28;45244;-81
2021/08/25 03:20:51;;;;;;;;;10.00;9.00;;;;;;;;5002320;28;45132;-81
2021/08/25 03:23:18;;;;;;;;;10.00;8.00;;;;;;;;4984353;28;47526;-81
2021/08/25 03:25:43;;;;;;;;;8.50;8.50;;;;;;;;5002118;28;45720;-81
2021/08/25 03:28:08;;;;;;;;;10.33;10.33;;;;;;;;5011822;28;45507;-81
2021/08/25 03:30:34;;;;;;;;;9.33;8.00;;;;;;;;5021958;28;45158;-81
2021/08/25 03:33:03;;;;;;;;;8.25;8.25;;;;;;;;5018673;28;45837;-81
2021/08/25 03:35:29;;;;;;;;;9.50;8.25;;;;;;;;5022041;28;45606;-81
2021/08/25 03:37:54;;;;;;;;;10.00;9.00;;;;;;;;5004268;28;45586;-81
2021/08/25 03:40:19;;;;;;;;;10.00;9.00;;;;;;;;5021791;28;45631;-81
2021/08/25 03:42:44;;;;;;;;;8.00;8.00;;;;;;;;5021718;28;45580;-81
2021/08/25 03:45:10;;;;;;;;;7.00;6.00;;;;;;;;5022045;28;45206;-81
2021/08/25 03:47:35;;;;;;;;;9.00;7.75;;;;;;;;5003861;28;45265;-81
2021/08/25 03:50:01;;;;;;;;;12.00;8.25;;;;;;;;5021953;28;45378;-81
2021/08/25 03:52:26;;;;;;;;;9.25;8.25;;;;;;;;5020015;28;46320;-81
2021/08/25 03:54:51;;;;;;;;;11.00;10.00;;;;;;;;5002472;28;45301;-81
2021/08/25 03:57:16;;;;;;;;;11.00;9.33;;;;;;;;4999723;28;45266;-81
2021/08/25 03:59:41;;;;;;;;;9.00;8.67;;;;;;;;5002491;28;45230;-81
2021/08/25 04:02:07;;;;;;;;;9.00;9.00;;;;;;;;5001435;28;45351;-81
2021/08/25 04:04:32;;;;;;;;;9.00;9.00;;;;;;;;5001472;28;45295;-82
2021/08/25 04:06:57;;;;;;;;;9.67;8.33;;;;;;;;5001445;28;45488;-81
2021/08/25 04:09:22;;;;;;;;;8.67;8.00;;;;;;;;5001591;28;45479;-81
2021/08/25 04:11:48;;;;;;;;;9.33;9.33;;;;;;;;5000933;28;45467;-81
2021/08/25 04:14:13;;;;;;;;;11.00;8.00;;;;;;;;5015975;28;45660;-81
2021/08/25 04:16:38;;;;;;;;;10.33;9.33;;;;;;;;5021386;28;45486;-81
2021/08/25 04:19:03;;;;;;;;;12.00;8.00;;;;;;;;5021034;28;45583;-81
2021/08/25 04:21:28;;;;;;;;;12.67;8.00;;;;;;;;5020908;28;46725;-80
2021/08/25 04:23:54;;;;;;;;;11.00;9.67;;;;;;;;5003297;28;45583;-81
2021/08/25 04:26:19;;;;;;;;;7.50;6.00;;;;;;;;5020994;28;45415;-81
2021/08/25 04:28:44;;;;;;;;;10.67;9.00;;;;;;;;5021106;28;45491;-81
2021/08/25 04:31:09;;;;;;;;;11.00;9.50;;;;;;;;5020694;28;45494;-80
2021/08/25 04:33:35;;;;;;;;;11.50;9.25;;;;;;;;5019106;28;45298;-80
2021/08/25 04:36:01;;;;;;;;;12.00;11.00;;;;;;;;5004661;28;45254;-80
2021/08/25 04:38:26;;;;;;;;;8.75;8.75;;;;;;;;5001160;28;45242;-80
2021/08/25 04:40:53;;;;;;;;;11.00;9.25;;;;;;;;5002503;28;46444;-80
2021/08/25 04:43:18;;;;;;;;;12.75;10.00;;;;;;;;4985554;28;45356;-81
2021/08/25 04:45:43;;;;;;;;;12.67;9.33;;;;;;;;5001555;28;45344;-81
2021/08/25 04:48:09;;;;;;;;;9.33;9.33;;;;;;;;5000919;28;45375;-81
2021/08/25 04:50:34;;;;;;;;;12.33;10.00;;;;;;;;5000840;28;45319;-80
2021/08/25 04:52:59;;;;;;;;;11.33;9.33;;;;;;;;5000894;28;45380;-80
2021/08/25 04:55:24;;;;;;;;;9.67;8.00;;;;;;;;5009118;28;45395;-80
2021/08/25 04:57:50;;;;;;;;;9.50;9.00;;;;;;;;5003891;28;45410;-80
2021/08/25 05:00:15;;;;;;;;;12.50;11.25;;;;;;;;4995643;28;47218;-81
2021/08/25 05:02:40;;;;;;;;;14.00;8.75;;;;;;;;5000551;28;45302;-81
2021/08/25 05:05:06;;;;;;;;;9.33;8.33;;;;;;;;4983183;28;45508;-81
2021/08/25 05:07:31;;;;;;;;;12.25;11.50;;;;;;;;5000475;28;45206;-81
2021/08/25 05:09:56;;;;;;;;;10.00;8.00;;;;;;;;5000521;28;45632;-81
2021/08/25 05:12:21;;;;;;;;;11.00;9.67;;;;;;;;5001766;28;45553;-81
2021/08/25 05:14:47;;;;;;;;;12.00;9.00;;;;;;;;5011571;28;45290;-80
2021/08/25 05:17:12;;;;;;;;;12.50;8.75;;;;;;;;5002639;28;45475;-80
2021/08/25 05:19:37;;;;;;;;;8.67;8.00;;;;;;;;5000667;28;45187;-81
2021/08/25 05:22:02;;;;;;;;;11.67;10.33;;;;;;;;5000335;28;45262;-81
2021/08/25 05:24:28;;;;;;;;;8.00;7.50;;;;;;;;5001211;28;45276;-81
2021/08/25 05:26:54;;;;;;;;;11.75;10.25;;;;;;;;5000997;28;45423;-80
2021/08/25 05:29:20;;;;;;;;;11.75;10.25;;;;;;;;5001185;28;45516;-80
2021/08/25 05:31:45;;;;;;;;;9.00;8.33;;;;;;;;5000248;28;45434;-81
2021/08/25 05:34:12;;;;;;;;;9.00;9.00;;;;;;;;4982868;28;45529;-80
2021/08/25 05:36:37;;;;;;;;;10.25;9.75;;;;;;;;5006395;28;45521;-80
2021/08/25 05:39:02;;;;;;;;;11.50;9.50;;;;;;;;5002252;28;46001;-81
2021/08/25 05:41:28;;;;;;;;;16.75;10.00;;;;;;;;5019921;28;45412;-80
2021/08/25 05:43:53;;;;;;;;;8.00;8.00;;;;;;;;5020275;28;45449;-81
2021/08/25 05:46:18;;;;;;;;;10.00;8.00;;;;;;;;5020242;28;45476;-81
2021/08/25 05:48:43;;;;;;;;;10.33;9.67;;;;;;;;5001816;28;48061;-80
2021/08/25 05:51:08;;;;;;;;;11.00;9.00;;;;;;;;5019875;28;45432;-80
2021/08/25 05:53:34;;;;;;;;;10.67;8.00;;;;;;;;5019932;28;45368;-80
2021/08/25 05:55:59;;;;;;;;;12.67;7.33;;;;;;;;5019761;28;45313;-80
2021/08/25 05:58:24;;;;;;;;;8.33;8.00;;;;;;;;5000719;28;47235;-80
2021/08/25 06:00:49;;;;;;;;;10.00;10.00;;;;;;;;5010378;28;45493;-80
2021/08/25 06:03:14;;;;;;;;;8.33;8.33;;;;;;;;4989132;28;45397;-80
2021/08/25 06:05:40;;;;;;;;;14.00;10.00;;;;;;;;5017080;28;45378;-82
2021/08/25 06:08:05;;;;;;;;;9.00;9.00;;;;;;;;5019134;28;46315;-82
2021/08/25 06:10:30;;;;;;;;;12.00;11.50;;;;;;;;5000412;28;45245;-81
2021/08/25 06:12:56;;;;;;;;;14.25;11.75;;;;;;;;5017333;28;45487;-80
2021/08/25 06:15:21;;;;;;;;;11.25;8.50;;;;;;;;4982227;28;46010;-81
2021/08/25 06:17:46;;;;;;;;;9.50;9.50;;;;;;;;4999557;28;48787;-81
2021/08/25 06:20:11;;;;;;;;;13.67;11.00;;;;;;;;5021025;28;45300;-81
2021/08/25 06:22:37;;;;;;;;;12.00;12.00;;;;;;;;5018464;28;45504;-81
2021/08/25 06:25:02;;;;;;;;;13.75;11.00;;;;;;;;5022626;28;45288;-81
2021/08/25 06:27:27;;;;;;;;;10.00;10.00;;;;;;;;5005780;28;47225;-81
2021/08/25 06:29:53;;;;;;;;;16.67;12.00;;;;;;;;5003236;28;45178;-81
2021/08/25 06:32:19;;;;;;;;;13.00;9.67;;;;;;;;5003144;28;45339;-81
2021/08/25 06:34:44;;;;;;;;;11.50;9.75;;;;;;;;5003141;28;45425;-81
2021/08/25 06:37:09;;;;;;;;;13.67;11.67;;;;;;;;5014826;28;46151;-81
2021/08/25 06:39:35;;;;;;;;;12.33;10.33;;;;;;;;5011416;28;45294;-81
2021/08/25 06:42:00;;;;;;;;;11.75;10.25;;;;;;;;5003175;28;45401;-81
2021/08/25 06:44:25;;;;;;;;;13.00;10.00;;;;;;;;5012825;28;45411;-81
2021/08/25 06:46:50;;;;;;;;;11.00;9.50;;;;;;;;5013663;28;45257;-81
2021/08/25 06:49:16;;;;;;;;;11.50;10.25;;;;;;;;5013301;28;45372;-81
2021/08/25 06:51:41;;;;;;;;;12.00;11.25;;;;;;;;5011674;28;45401;-81
2021/08/25 06:54:06;;;;;;;;;14.50;10.00;;;;;;;;5007841;28;45368;-81
2021/08/25 06:56:32;;;;;;;;;11.75;10.50;;;;;;;;5010435;28;46050;-81
2021/08/25 06:58:57;;;;;;;;;15.00;11.67;;;;;;;;5010171;28;45428;-82
2021/08/25 07:01:22;;;;;;;;;10.00;9.67;;;;;;;;4988783;28;45511;-83
2021/08/25 07:03:48;;;;;;;;;11.33;10.00;;;;;;;;5019031;28;45478;-81
2021/08/25 07:06:13;;;;;;;;;14.25;13.00;;;;;;;;5017284;28;45526;-82
2021/08/25 07:08:38;;;;;;;;;12.33;11.33;;;;;;;;5015446;28;45483;-82
2021/08/25 07:11:04;;;;;;;;;12.33;10.33;;;;;;;;5016649;28;45387;-83
2021/08/25 07:13:29;;;;;;;;;11.25;8.75;;;;;;;;5017363;28;45424;-82
2021/08/25 07:15:54;;;;;;;;;12.33;10.00;;;;;;;;5015303;28;45399;-82
2021/08/25 07:18:20;;;;;;;;;11.33;8.00;;;;;;;;5013550;28;45487;-82
2021/08/25 07:20:45;;;;;;;;;9.67;9.33;;;;;;;;5009502;28;45469;-82
2021/08/25 07:23:10;;;;;;;;;12.75;9.50;;;;;;;;5013920;28;45284;-82
2021/08/25 07:25:35;;;;;;;;;8.00;8.00;;;;;;;;4996548;28;48358;-82
2021/08/25 07:28:01;;;;;;;;;9.00;8.00;;;;;;;;4993559;28;45752;-82
2021/08/25 07:30:26;;;;;;;;;9.25;7.75;;;;;;;;5011631;28;45536;-83
2021/08/25 07:32:51;;;;;;;;;13.00;9.33;;;;;;;;5007754;28;45444;-82
2021/08/25 07:35:16;;;;;;;;;9.50;8.00;;;;;;;;5013684;28;45577;-81
2021/08/25 07:37:42;;;;;;;;;13.00;9.25;;;;;;;;4992778;28;46553;-81
2021/08/25 07:40:08;;;;;;;;;11.25;10.50;;;;;;;;5011936;28;46605;-81
2021/08/25 07:42:33;;;;;;;;;11.00;10.25;;;;;;;;5013937;28;45359;-82
2021/08/25 07:44:58;;;;;;;;;14.25;10.25;;;;;;;;5010607;28;45916;-81
2021/08/25 07:47:23;;;;;;;;;10.00;8.00;;;;;;;;4998224;28;45920;-82
2021/08/25 07:49:49;;;;;;;;;9.00;8.33;;;;;;;;4995793;28;45430;-82
2021/08/25 07:52:14;;;;;;;;;9.50;8.00;;;;;;;;5015969;28;45485;-82
2021/08/25 07:54:39;;;;;;;;;9.75;7.00;;;;;;;;5015596;28;46540;-82
2021/08/25 07:57:05;;;;;;;;;10.00;8.50;;;;;;;;5012379;28;45522;-82
2021/08/25 07:59:30;;;;;;;;;8.25;8.25;;;;;;;;4999599;28;45537;-83
2021/08/25 08:01:55;;;;;;;;;9.50;7.50;;;;;;;;5009787;28;45486;-82
2021/08/25 08:04:20;;;;;;;;;7.67;6.00;;;;;;;;5016998;28;46126;-83
2021/08/25 08:06:46;;;;;;;;;9.50;6.75;;;;;;;;5011758;28;45430;-82
2021/08/25 08:09:11;;;;;;;;;8.00;6.00;;;;;;;;5016237;28;45552;-82
2021/08/25 08:11:37;;;;;;;;;8.00;5.75;;;;;;;;4988272;28;45396;-82
2021/08/25 08:14:02;;;;;;;;;9.50;8.00;;;;;;;;5012905;28;45476;-82
2021/08/25 08:16:27;;;;;;;;;10.33;7.00;;;;;;;;5014951;28;45445;-82
2021/08/25 08:21:22;;;;;;;;;8.00;7.50;;;;;;;;5008624;28;45476;-83
2021/08/25 08:23:47;;;;;;;;;7.25;6.00;;;;;;;;5013163;28;46119;-83
2021/08/25 08:26:12;;;;;;;;;8.75;7.50;;;;;;;;5017206;28;45576;-83
2021/08/25 08:28:38;;;;;;;;;7.33;5.67;;;;;;;;5010207;28;45518;-82
2021/08/25 08:31:03;;;;;;;;;7.00;7.00;;;;;;;;4989548;28;45436;-83
2021/08/25 08:33:28;;;;;;;;;9.00;7.00;;;;;;;;4990170;28;47386;-83
2021/08/25 08:35:54;;;;;;;;;11.00;8.25;;;;;;;;5009914;28;45760;-83
2021/08/25 08:38:19;;;;;;;;;7.00;7.00;;;;;;;;5017609;28;45410;-83
2021/08/25 08:40:44;;;;;;;;;8.33;6.67;;;;;;;;4997047;28;45689;-83
2021/08/25 08:43:10;;;;;;;;;8.33;7.33;;;;;;;;4993826;28;46938;-83
2021/08/25 08:45:39;;;;;;;;;7.50;7.25;;;;;;;;5017699;28;45435;-83
2021/08/25 08:48:07;;;;;;;;;8.00;8.00;;;;;;;;5014862;28;45688;-84
2021/08/25 08:50:33;;;;;;;;;7.50;7.50;;;;;;;;5014215;28;45570;-83
2021/08/25 08:52:59;;;;;;;;;10.25;8.00;;;;;;;;5015845;28;46802;-83
2021/08/25 08:55:24;;;;;;;;;11.50;7.75;;;;;;;;4994092;28;45364;-83
2021/08/25 08:57:49;;;;;;;;;10.25;8.25;;;;;;;;5015763;28;45414;-84
2021/08/25 09:00:15;;;;;;;;;8.00;8.00;;;;;;;;5013553;28;45236;-84
2021/08/25 09:02:42;;;;;;;;;5.75;5.75;;;;;;;;5015295;28;45435;-84
2021/08/25 09:05:28;;;;;;;;;7.75;7.75;;;;;;;;5015540;28;45450;-84
2021/08/25 09:07:58;;;;;;;;;8.75;8.75;;;;;;;;4996388;28;45380;-84
2021/08/25 09:10:36;;;;;;;;;6.50;6.50;;;;;;;;5012770;28;46366;-84
2021/08/25 09:13:04;;;;;;;;;14.25;13.75;;;;;;;;5013722;28;46050;-83
2021/08/25 09:15:32;;;;;;;;;11.50;8.75;;;;;;;;4992348;28;46460;-84
2021/08/25 09:17:59;;;;;;;;;10.00;9.50;;;;;;;;4995625;28;45496;-84
2021/08/25 09:20:24;;;;;;;;;7.75;6.25;;;;;;;;5014462;28;45639;-83
2021/08/25 09:23:09;;;;;;;;;6.75;6.75;;;;;;;;5009945;28;45950;-83
2021/08/25 09:25:35;;;;;;;;;8.75;8.75;;;;;;;;5005025;28;46527;-84
2021/08/25 09:28:00;;;;;;;;;8.25;7.25;;;;;;;;4996074;28;45539;-84
2021/08/25 09:30:26;;;;;;;;;8.00;7.50;;;;;;;;5010164;28;45503;-84
2021/08/25 09:32:51;;;;;;;;;9.75;8.00;;;;;;;;5011854;28;45742;-84
2021/08/25 09:35:16;;;;;;;;;9.33;8.00;;;;;;;;5015465;28;45558;-84
2021/08/25 09:37:50;;;;;;;;;8.00;7.00;;;;;;;;4993310;28;45673;-84
2021/08/25 09:40:17;;;;;;;;;6.50;6.25;;;;;;;;5010498;28;45487;-85
2021/08/25 09:42:43;;;;;;;;;9.00;7.50;;;;;;;;5010758;28;46639;-84
2021/08/25 09:45:09;;;;;;;;;9.00;9.00;;;;;;;;5012681;28;45446;-85
2021/08/25 09:47:44;;;;;;;;;7.50;7.25;;;;;;;;4990956;28;45437;-85
2021/08/25 09:50:09;;;;;;;;;5.50;5.50;;;;;;;;5011129;28;45487;-85
2021/08/25 09:52:34;;;;;;;;;5.75;5.75;;;;;;;;5013244;28;46528;-85
2021/08/25 09:55:00;;;;;;;;;18.25;17.50;;;;;;;;5009058;28;46413;-84
2021/08/25 09:57:37;;;;;;;;;6.25;6.00;;;;;;;;5014247;28;45315;-84
2021/08/25 10:00:04;;;;;;;;;8.25;7.50;;;;;;;;5011865;28;45767;-84
2021/08/25 10:02:30;;;;;;;;;9.25;7.50;;;;;;;;4990503;28;48220;-84
2021/08/25 10:04:55;;;;;;;;;6.25;6.25;;;;;;;;4998988;28;45663;-84
2021/08/25 10:07:20;;;;;;;;;7.00;6.67;;;;;;;;5010409;28;45629;-84
2021/08/25 10:09:46;;;;;;;;;8.00;5.25;;;;;;;;5018280;28;45444;-84
2021/08/25 10:12:11;;;;;;;;;13.00;8.75;;;;;;;;5014556;28;45387;-84
2021/08/25 10:14:36;;;;;;;;;6.00;5.00;;;;;;;;5011061;28;45733;-84
2021/08/25 10:17:02;;;;;;;;;9.75;8.50;;;;;;;;4998702;28;45531;-84
2021/08/25 10:19:37;;;;;;;;;8.25;8.00;;;;;;;;5002207;28;45481;-84
2021/08/25 10:22:15;;;;;;;;;7.00;7.00;;;;;;;;5015881;28;45592;-83
2021/08/25 10:24:55;;;;;;;;;6.00;4.25;;;;;;;;4998453;28;45655;-85
2021/08/25 10:27:21;;;;;;;;;9.00;8.25;;;;;;;;4998448;28;45524;-84
2021/08/25 10:30:01;;;;;;;;;7.25;6.75;;;;;;;;4998508;28;45581;-85
2021/08/25 10:32:30;;;;;;;;;4.50;4.50;;;;;;;;4997999;28;45312;-84
2021/08/25 10:35:11;;;;;;;;;5.50;3.75;;;;;;;;4998628;28;45550;-84
2021/08/25 10:37:37;;;;;;;;;7.00;6.50;;;;;;;;5006078;28;45356;-83
2021/08/25 10:40:03;;;;;;;;;6.50;6.50;;;;;;;;5008940;28;45686;-84
2021/08/25 10:42:48;;;;;;;;;6.50;6.50;;;;;;;;5012512;28;46491;-85
2021/08/25 10:45:13;;;;;;;;;8.50;8.25;;;;;;;;5013804;28;45281;-84
2021/08/25 10:47:58;;;;;;;;;10.00;8.00;;;;;;;;5012248;28;45635;-81
2021/08/25 10:50:44;;;;;;;;;9.50;9.00;;;;;;;;5006832;28;45142;-82
2021/08/25 10:53:27;;;;;;;;;6.50;6.50;;;;;;;;5008211;28;45385;-84
2021/08/25 10:56:03;;;;;;;;;6.00;5.25;;;;;;;;4998493;28;45506;-85
2021/08/25 10:58:41;;;;;;;;;7.25;7.25;;;;;;;;5010558;28;45360;-85
2021/08/25 11:01:19;;;;;;;;;11.25;9.75;;;;;;;;4989049;28;45633;-87
2021/08/25 11:03:47;;;;;;;;;10.50;9.00;;;;;;;;5007528;28;46230;-84
2021/08/25 11:06:25;;;;;;;;;11.50;11.00;;;;;;;;5018062;28;45459;-86
2021/08/25 11:08:51;;;;;;;;;6.00;6.00;;;;;;;;4999855;28;45453;-86
2021/08/25 11:11:16;;;;;;;;;7.00;7.00;;;;;;;;5017738;28;45485;-85
2021/08/25 11:13:41;;;;;;;;;10.00;9.00;;;;;;;;5020227;28;45462;-85
2021/08/25 11:16:23;;;;;;;;;7.33;7.33;;;;;;;;5016424;28;45436;-85
2021/08/25 11:18:48;;;;;;;;;8.00;7.50;;;;;;;;4995138;28;45456;-85
2021/08/25 11:21:14;;;;;;;;;7.33;6.33;;;;;;;;5016329;28;45442;-86
2021/08/25 11:23:52;;;;;;;;;6.67;6.67;;;;;;;;4992950;28;47125;-85
2021/08/25 11:26:17;;;;;;;;;10.50;10.50;;;;;;;;5013676;28;45352;-84
2021/08/25 11:28:43;;;;;;;;;7.00;7.00;;;;;;;;5013623;28;45496;-85
2021/08/25 11:31:08;;;;;;;;;7.00;6.00;;;;;;;;5012419;28;45568;-85
2021/08/25 11:33:34;;;;;;;;;8.00;8.00;;;;;;;;5012780;28;45456;-85
2021/08/25 11:36:02;;;;;;;;;14.25;11.25;;;;;;;;5016926;28;45475;-85
2021/08/25 11:38:27;;;;;;;;;8.25;5.25;;;;;;;;5013456;28;45468;-85
2021/08/25 11:40:55;;;;;;;;;6.25;6.25;;;;;;;;4996577;28;45416;-84
2021/08/25 11:43:21;;;;;;;;;15.00;11.75;;;;;;;;5012324;28;46577;-82
2021/08/25 11:45:51;;;;;;;;;10.25;7.50;;;;;;;;4993488;28;45958;-83
2021/08/25 11:48:17;;;;;;;;;9.25;9.25;;;;;;;;5002191;28;45346;-84
2021/08/25 11:50:46;;;;;;;;;11.00;7.25;;;;;;;;5005342;28;45173;-87
2021/08/25 11:53:15;;;;;;;;;6.25;6.25;;;;;;;;4997206;28;46863;-85
2021/08/25 11:55:41;;;;;;;;;9.50;7.25;;;;;;;;5017898;28;45464;-85
2021/08/25 11:58:19;;;;;;;;;7.75;7.75;;;;;;;;5007083;28;45451;-85
2021/08/25 12:00:44;;;;;;;;;14.25;12.75;;;;;;;;5009547;28;45477;-84
2021/08/25 12:03:10;;;;;;;;;4.50;4.50;;;;;;;;5017050;28;46400;-84
2021/08/25 12:05:55;;;;;;;;;6.00;6.00;;;;;;;;5011292;28;45626;-84
2021/08/25 12:08:21;;;;;;;;;9.00;8.00;;;;;;;;5013753;28;45379;-84
2021/08/25 12:11:02;;;;;;;;;6.00;6.00;;;;;;;;5001171;28;45380;-84
2021/08/25 12:13:34;;;;;;;;;9.75;9.00;;;;;;;;5002275;28;45293;-84
2021/08/25 12:16:00;;;;;;;;;10.50;7.25;;;;;;;;5000460;28;45357;-84
2021/08/25 12:18:27;;;;;;;;;8.50;8.00;;;;;;;;5001662;28;45366;-84
2021/08/25 12:20:53;;;;;;;;;6.50;6.00;;;;;;;;5012582;28;45523;-84
2021/08/25 12:23:21;;;;;;;;;8.75;5.75;;;;;;;;4983636;28;47408;-85
2021/08/25 12:25:56;;;;;;;;;5.25;5.25;;;;;;;;5004703;28;45707;-85
2021/08/25 12:28:34;;;;;;;;;8.00;8.00;;;;;;;;4999534;28;45487;-85
2021/08/25 12:31:14;;;;;;;;;10.75;10.75;;;;;;;;5021252;28;45510;-85
2021/08/25 12:33:40;;;;;;;;;7.00;5.25;;;;;;;;5020826;28;46176;-85
2021/08/25 12:36:20;;;;;;;;;5.00;5.00;;;;;;;;5003307;28;45257;-85
2021/08/25 12:38:45;;;;;;;;;6.50;6.50;;;;;;;;5003267;28;45440;-84
2021/08/25 12:41:10;;;;;;;;;9.50;8.00;;;;;;;;5020822;28;45145;-84
2021/08/25 12:43:35;;;;;;;;;7.67;7.67;;;;;;;;5020820;28;45261;-84
2021/08/25 12:46:01;;;;;;;;;9.33;8.33;;;;;;;;5018411;28;45494;-85
2021/08/25 12:48:26;;;;;;;;;9.00;7.33;;;;;;;;4991856;28;45586;-84
2021/08/25 12:50:51;;;;;;;;;5.00;5.00;;;;;;;;5009959;28;45367;-84
2021/08/25 12:53:16;;;;;;;;;7.00;7.00;;;;;;;;5000697;28;45382;-84
2021/08/25 12:55:41;;;;;;;;;8.50;7.50;;;;;;;;5012894;28;45308;-84
2021/08/25 12:58:07;;;;;;;;;4.33;3.33;;;;;;;;5003172;28;45399;-84
2021/08/25 13:00:38;;;;;;;;;6.67;5.67;;;;;;;;5017797;28;45447;-84
2021/08/25 13:03:03;;;;;;;;;7.25;6.75;;;;;;;;4993873;28;47306;-84
2021/08/25 13:05:28;;;;;;;;;7.67;5.67;;;;;;;;5000656;28;45624;-84
2021/08/25 13:07:53;;;;;;;;;8.00;6.00;;;;;;;;5009029;28;45415;-84
2021/08/25 13:10:18;;;;;;;;;7.33;7.00;;;;;;;;5016456;28;45484;-83
2021/08/25 13:12:44;;;;;;;;;5.75;5.75;;;;;;;;4987712;28;47218;-86
2021/08/25 13:15:09;;;;;;;;;8.00;8.00;;;;;;;;5003581;28;45226;-84
2021/08/25 13:17:34;;;;;;;;;9.25;6.00;;;;;;;;5020610;28;45552;-84
2021/08/25 13:20:00;;;;;;;;;7.75;6.00;;;;;;;;5020219;28;45209;-84
2021/08/25 13:22:25;;;;;;;;;9.00;7.25;;;;;;;;5020541;28;45269;-84
2021/08/25 13:24:50;;;;;;;;;8.00;7.50;;;;;;;;5002287;28;45290;-84
2021/08/25 13:27:15;;;;;;;;;13.00;7.00;;;;;;;;5002611;28;45317;-84
2021/08/25 13:29:41;;;;;;;;;6.25;6.25;;;;;;;;5018020;28;45619;-84
2021/08/25 13:32:06;;;;;;;;;9.67;8.67;;;;;;;;5002388;28;46920;-84
2021/08/25 13:34:31;;;;;;;;;9.25;8.25;;;;;;;;5020066;28;45263;-84
2021/08/25 13:36:56;;;;;;;;;7.25;6.25;;;;;;;;5002246;28;45257;-85
2021/08/25 13:39:22;;;;;;;;;8.00;8.00;;;;;;;;5017593;28;45642;-83
2021/08/25 13:41:47;;;;;;;;;8.00;7.00;;;;;;;;5018825;28;46354;-83
2021/08/25 13:44:12;;;;;;;;;8.33;6.00;;;;;;;;5018774;28;45417;-84
2021/08/25 13:46:37;;;;;;;;;11.33;9.33;;;;;;;;5019216;28;45309;-84
2021/08/25 13:49:03;;;;;;;;;9.75;7.75;;;;;;;;5016507;28;45320;-84
2021/08/25 13:51:28;;;;;;;;;10.75;8.00;;;;;;;;5018924;28;45224;-83
2021/08/25 13:53:53;;;;;;;;;6.67;6.67;;;;;;;;5019351;28;45250;-83
2021/08/25 13:56:18;;;;;;;;;8.00;8.00;;;;;;;;5018337;28;45388;-84
2021/08/25 13:58:43;;;;;;;;;8.67;7.33;;;;;;;;5002243;28;45495;-84
2021/08/25 14:01:09;;;;;;;;;10.25;7.25;;;;;;;;5005325;28;45442;-83
2021/08/25 14:03:34;;;;;;;;;9.00;9.00;;;;;;;;4999077;28;45295;-84
2021/08/25 14:05:59;;;;;;;;;11.00;9.50;;;;;;;;4999323;28;45401;-83
2021/08/25 14:08:24;;;;;;;;;11.67;8.33;;;;;;;;4998849;28;45321;-84
2021/08/25 14:10:50;;;;;;;;;9.33;7.33;;;;;;;;5012870;28;46209;-84
2021/08/25 14:13:15;;;;;;;;;7.33;7.33;;;;;;;;5000519;28;45384;-84
2021/08/25 14:15:40;;;;;;;;;2.00;0.00;;;;;;;;4985253;28;45367;-84
2021/08/25 14:18:05;;;;;;;;;8.00;8.00;;;;;;;;4981226;28;45526;-84
2021/08/25 14:20:31;;;;;;;;;8.50;7.75;;;;;;;;4998422;28;46244;-83
2021/08/25 14:22:56;;;;;;;;;9.25;7.50;;;;;;;;4998694;28;45489;-84
2021/08/25 14:25:22;;;;;;;;;5.00;5.00;;;;;;;;4998613;28;45468;-84
2021/08/25 14:27:47;;;;;;;;;7.67;7.67;;;;;;;;4998671;28;45375;-84
2021/08/25 14:30:12;;;;;;;;;11.00;8.00;;;;;;;;5001765;28;45479;-84
2021/08/25 14:32:37;;;;;;;;;7.50;6.00;;;;;;;;5017795;28;45415;-84
2021/08/25 14:35:03;;;;;;;;;9.00;7.00;;;;;;;;5000556;28;45362;-84